createdAt,value
2023-06-29T00:01:12.602Z,22.87
2023-06-29T00:06:15.446Z,22.74
2023-06-29T00:11:18.408Z,22.84
2023-06-29T00:16:23.912Z,22.83
2023-06-29T00:21:59.148Z,22.57
2023-06-29T00:27:02.028Z,22.65
2023-06-29T00:32:07.447Z,22.49
2023-06-29T00:37:10.267Z,22.70
2023-06-29T00:42:13.825Z,22.64
2023-06-29T00:47:18.049Z,22.60
2023-06-29T00:52:21.678Z,22.59
2023-06-29T00:57:25.254Z,22.55
2023-06-29T01:02:31.139Z,22.62
2023-06-29T01:07:39.078Z,22.40
2023-06-29T01:12:42.728Z,22.32
2023-06-29T01:17:47.714Z,22.35
2023-06-29T01:22:58.174Z,22.11
2023-06-29T01:28:07.405Z,22.29
2023-06-29T01:33:11.719Z,22.12
2023-06-29T01:38:17.896Z,22.28
2023-06-29T01:43:23.157Z,22.15
2023-06-29T01:48:26.586Z,22.17
2023-06-29T01:53:31.872Z,22.24
2023-06-29T01:58:37.130Z,22.31
2023-06-29T02:03:40.887Z,22.05
2023-06-29T02:08:43.993Z,22.22
2023-06-29T02:13:48.538Z,22.32
2023-06-29T02:18:51.413Z,22.13
2023-06-29T02:23:54.267Z,21.99
2023-06-29T02:28:58.525Z,22.28
2023-06-29T02:34:01.334Z,22.06
2023-06-29T02:39:05.792Z,22.07
2023-06-29T02:44:10.380Z,22.14
2023-06-29T02:49:13.515Z,22.18
2023-06-29T02:54:17.340Z,22.09
2023-06-29T02:59:22.856Z,22.14
2023-06-29T03:04:25.640Z,22.14
2023-06-29T03:09:30.452Z,22.02
2023-06-29T03:14:34.617Z,22.05
2023-06-29T03:19:37.580Z,22.23
2023-06-29T03:24:40.432Z,22.14
2023-06-29T03:29:44.770Z,22.13
2023-06-29T03:34:47.757Z,22.05
2023-06-29T03:39:50.623Z,22.20
2023-06-29T03:44:54.822Z,21.89
2023-06-29T03:49:57.676Z,22.07
2023-06-29T03:55:00.378Z,21.75
2023-06-29T04:00:05.291Z,21.92
2023-06-29T04:05:15.554Z,21.79
2023-06-29T04:10:18.455Z,22.11
2023-06-29T04:15:22.948Z,22.03
2023-06-29T04:20:25.777Z,22.07
2023-06-29T04:25:28.577Z,22.03
2023-06-29T04:30:32.806Z,21.98
2023-06-29T04:35:37.057Z,22.07
2023-06-29T04:40:40.104Z,22.14
2023-06-29T04:45:44.476Z,22.12
2023-06-29T04:50:47.499Z,22.10
2023-06-29T04:55:50.316Z,22.18
2023-06-29T05:00:55.202Z,22.17
2023-06-29T05:05:58.009Z,22.23
2023-06-29T05:11:00.881Z,22.12
2023-06-29T05:16:05.833Z,22.16
2023-06-29T05:21:08.852Z,22.17
2023-06-29T05:26:11.754Z,22.02
2023-06-29T05:31:16.695Z,22.41
2023-06-29T05:43:00.317Z,22.41
2023-06-29T05:48:04.652Z,22.68
2023-06-29T05:53:21.562Z,22.22
2023-06-29T05:58:25.097Z,22.52
2023-06-29T06:03:30.105Z,22.47
2023-06-29T06:08:32.932Z,22.78
2023-06-29T06:13:35.655Z,22.46
2023-06-29T06:18:39.787Z,22.49
2023-06-29T06:23:42.596Z,22.57
2023-06-29T06:28:45.447Z,22.55
2023-06-29T06:33:53.788Z,22.30
2023-06-29T06:38:56.657Z,22.44
2023-06-29T06:43:59.790Z,22.35
2023-06-29T06:49:04.666Z,22.36
2023-06-29T06:54:22.846Z,22.65
2023-06-29T06:59:25.760Z,22.31
2023-06-29T07:10:08.382Z,22.37
2023-06-29T07:16:26.694Z,22.67
2023-06-29T07:27:18.032Z,22.70
2023-06-29T07:32:20.795Z,22.54
2023-06-29T07:37:24.265Z,22.68
2023-06-29T07:42:38.851Z,22.65
2023-06-29T07:53:56.359Z,22.78
2023-06-29T07:59:00.558Z,22.74
2023-06-29T08:04:04.912Z,22.68
2023-06-29T08:09:08.179Z,22.75
2023-06-29T08:14:15.218Z,22.74
2023-06-29T08:19:18.462Z,22.78
2023-06-29T08:24:21.188Z,22.69
2023-06-29T08:29:25.430Z,22.84
2023-06-29T08:34:28.477Z,22.99
2023-06-29T08:39:31.177Z,22.62
2023-06-29T08:44:35.524Z,22.77
2023-06-29T08:50:08.555Z,22.94
2023-06-29T08:55:11.274Z,22.98
2023-06-29T09:00:16.748Z,22.93
2023-06-29T09:05:20.561Z,22.88
2023-06-29T09:10:23.728Z,22.84
2023-06-29T09:15:29.415Z,23.01
2023-06-29T09:20:35.883Z,23.11
2023-06-29T09:25:41.390Z,23.07
2023-06-29T09:31:34.104Z,23.08
2023-06-29T09:36:37.043Z,23.07
2023-06-29T09:41:46.686Z,22.90
2023-06-29T09:52:05.113Z,23.19
2023-06-29T09:57:11.806Z,23.17
2023-06-29T10:02:16.820Z,23.22
2023-06-29T10:07:20.546Z,23.30
2023-06-29T10:12:24.814Z,23.31
2023-06-29T10:18:03.766Z,23.37
2023-06-29T10:23:07.646Z,23.35
2023-06-29T10:28:10.925Z,23.34
2023-06-29T10:33:15.927Z,23.44
2023-06-29T10:38:18.906Z,23.42
2023-06-29T10:43:22.078Z,23.49
2023-06-29T10:48:47.091Z,23.51
2023-06-29T10:53:51.091Z,23.56
2023-06-29T10:59:01.034Z,23.57
2023-06-29T11:04:05.905Z,23.54
2023-06-29T11:09:13.217Z,23.63
2023-06-29T11:14:16.271Z,23.59
2023-06-29T11:19:22.213Z,23.64
2023-06-29T11:24:25.083Z,23.63
2023-06-29T11:29:29.135Z,23.71
2023-06-29T11:34:33.364Z,23.74
2023-06-29T11:39:36.183Z,23.76
2023-06-29T11:44:39.005Z,23.80
2023-06-29T11:49:43.167Z,23.86
2023-06-29T11:54:48.069Z,23.89
2023-06-29T11:59:50.821Z,23.84
2023-06-29T12:04:59.655Z,23.85
2023-06-29T12:10:03.676Z,23.84
2023-06-29T12:15:13.653Z,23.90
2023-06-29T12:20:19.317Z,23.89
2023-06-29T12:25:23.487Z,23.90
2023-06-29T12:30:26.310Z,23.98
2023-06-29T12:35:33.659Z,23.95
2023-06-29T12:40:36.572Z,23.96
2023-06-29T12:45:39.453Z,23.95
2023-06-29T12:50:43.802Z,24.01
2023-06-29T12:55:47.362Z,24.01
2023-06-29T13:00:50.598Z,23.98
2023-06-29T13:05:54.728Z,24.02
2023-06-29T13:10:57.584Z,24.05
2023-06-29T13:16:00.427Z,24.07
2023-06-29T13:21:04.722Z,24.05
2023-06-29T13:26:07.566Z,24.10
2023-06-29T13:31:10.382Z,24.06
2023-06-29T13:36:14.596Z,24.12
2023-06-29T13:41:20.176Z,24.09
2023-06-29T13:46:22.914Z,24.12
2023-06-29T13:51:27.761Z,24.11
2023-06-29T13:56:32.689Z,24.16
2023-06-29T14:02:19.592Z,24.15
2023-06-29T14:07:24.051Z,24.17
2023-06-29T14:12:26.981Z,24.11
2023-06-29T14:17:40.722Z,24.07
2023-06-29T14:22:45.084Z,23.97
2023-06-29T14:27:47.985Z,24.06
2023-06-29T14:33:19.598Z,23.99
2023-06-29T14:39:29.131Z,24.18
2023-06-29T15:02:39.130Z,24.31
2023-06-29T15:07:42.645Z,24.32
2023-06-29T15:12:45.529Z,24.35
2023-06-29T15:17:49.667Z,24.30
2023-06-29T15:22:52.506Z,24.33
2023-06-29T15:27:57.097Z,24.40
2023-06-29T15:33:01.363Z,24.38
2023-06-29T15:38:04.235Z,24.40
2023-06-29T15:43:07.358Z,24.41
2023-06-29T15:48:11.670Z,24.37
2023-06-29T15:53:14.777Z,24.37
2023-06-29T15:58:17.767Z,24.30
2023-06-29T16:03:22.731Z,24.34
2023-06-29T16:08:29.390Z,24.28
2023-06-29T16:13:32.235Z,24.43
2023-06-29T16:18:36.444Z,24.44
2023-06-29T16:23:39.738Z,24.40
2023-06-29T16:28:42.554Z,24.36
2023-06-29T16:33:46.682Z,24.20
2023-06-29T16:38:49.471Z,24.17
2023-06-29T16:43:53.553Z,24.04
2023-06-29T16:48:59.869Z,23.97
2023-06-29T16:54:02.699Z,24.65
2023-06-29T16:59:05.543Z,24.05
2023-06-29T17:04:09.888Z,24.08
2023-06-29T17:09:12.757Z,24.37
2023-06-29T17:14:15.549Z,24.55
2023-06-29T17:19:19.637Z,24.39
2023-06-29T17:24:22.397Z,24.52
2023-06-29T17:29:25.127Z,24.26
2023-06-29T17:34:29.147Z,24.45
2023-06-29T17:39:31.857Z,24.47
2023-06-29T17:44:34.758Z,24.52
2023-06-29T17:49:38.913Z,24.47
2023-06-29T17:54:41.648Z,24.48
2023-06-29T17:59:53.380Z,24.47
2023-06-29T18:04:59.689Z,24.46
2023-06-29T18:10:06.049Z,24.50
2023-06-29T18:15:09.866Z,24.46
2023-06-29T18:26:57.782Z,24.48
2023-06-29T18:32:56.247Z,24.60
2023-06-29T18:38:00.499Z,24.67
2023-06-29T18:43:04.155Z,24.78
2023-06-29T18:48:07.344Z,24.75
2023-06-29T18:53:11.385Z,24.74
2023-06-29T18:58:14.100Z,24.80
2023-06-29T19:03:16.972Z,24.80
2023-06-29T19:08:23.691Z,24.80
2023-06-29T19:13:28.218Z,24.88
2023-06-29T19:18:31.032Z,24.59
2023-06-29T19:23:35.162Z,24.52
2023-06-29T19:35:09.620Z,24.50
2023-06-29T19:40:14.654Z,24.55
2023-06-29T19:45:17.541Z,24.68
2023-06-29T19:55:53.814Z,24.49
2023-06-29T20:27:32.006Z,24.38
2023-06-29T20:50:16.600Z,24.33
2023-06-29T21:14:34.510Z,24.35
2023-06-29T21:19:37.802Z,24.30
2023-06-29T21:24:42.548Z,24.12
2023-06-29T21:29:46.619Z,24.20
2023-06-29T21:34:49.742Z,24.15
2023-06-29T21:39:53.836Z,24.15
2023-06-29T21:44:56.531Z,23.99
2023-06-29T21:49:59.297Z,24.14
2023-06-29T21:55:03.348Z,24.13
2023-06-29T22:00:10.497Z,24.09
2023-06-29T22:05:19.088Z,24.08
2023-06-29T22:10:31.766Z,24.08
2023-06-29T22:15:35.857Z,24.28
2023-06-29T22:20:38.698Z,24.24
2023-06-29T22:25:42.792Z,24.31
2023-06-29T22:30:45.873Z,24.09
2023-06-29T22:35:49.433Z,24.03
2023-06-29T22:40:54.083Z,24.03
2023-06-29T22:45:56.881Z,24.17
2023-06-29T22:51:00.231Z,24.08
2023-06-29T22:56:07.230Z,24.00
2023-06-29T23:01:16.832Z,24.13
2023-06-29T23:06:19.550Z,23.99
2023-06-29T23:11:26.645Z,24.13
2023-06-29T23:16:47.059Z,24.05
2023-06-29T23:21:50.143Z,23.98
2023-06-29T23:26:54.291Z,23.99
2023-06-29T23:31:57.060Z,23.86
2023-06-29T23:36:59.827Z,23.95
2023-06-29T23:42:12.805Z,23.83
2023-06-29T23:47:15.569Z,23.82
2023-06-29T23:52:25.832Z,23.82
2023-06-29T23:57:30.242Z,23.74
